Time;durP1;ratioP1;P1;durP2;ratioP2;P2;SDS_P1;SDS_P2;PMS_P1;PMS_P2;Temp;Humidity;BMP_temperature;BMP_pressure;BME280_temperature;BME280_humidity;BME280_pressure;Samples;Min_cycle;Max_cycle;Signal;HPM_P1;HPM_P2
2022/03/25 00:00:40;;;;;;;9.73;6.80;;;;;;;;;;4996050;28;20570;-85
2022/03/25 00:03:06;;;;;;;10.27;6.90;;;;;;;;;;4996004;28;20038;-84
2022/03/25 00:05:32;;;;;;;16.98;6.63;;;;;;;;;;5007694;28;20398;-87
2022/03/25 00:07:58;;;;;;;14.85;7.20;;;;;;;;;;4985274;28;20073;-86
2022/03/25 00:10:23;;;;;;;10.45;7.43;;;;;;;;;;4985499;28;20394;-85
2022/03/25 00:12:49;;;;;;;10.65;6.70;;;;;;;;;;5003654;28;20097;-84
2022/03/25 00:15:15;;;;;;;11.40;6.32;;;;;;;;;;4983092;28;20026;-84
2022/03/25 00:17:41;;;;;;;8.30;5.70;;;;;;;;;;5004750;28;20037;-84
2022/03/25 00:20:07;;;;;;;12.07;6.05;;;;;;;;;;4984697;28;20390;-83
2022/03/25 00:22:33;;;;;;;9.13;6.30;;;;;;;;;;5004356;28;20037;-83
2022/03/25 00:24:58;;;;;;;8.57;5.80;;;;;;;;;;4986595;28;20026;-83
2022/03/25 00:27:24;;;;;;;15.07;6.07;;;;;;;;;;5001206;28;20030;-84
2022/03/25 00:29:49;;;;;;;9.55;6.03;;;;;;;;;;5001629;28;20394;-82
2022/03/25 00:32:16;;;;;;;8.48;5.82;;;;;;;;;;4985596;28;20030;-83
2022/03/25 00:34:42;;;;;;;9.10;5.93;;;;;;;;;;5000605;28;20466;-83
2022/03/25 00:37:07;;;;;;;8.63;5.70;;;;;;;;;;5005665;28;20037;-83
2022/03/25 00:39:33;;;;;;;16.23;7.88;;;;;;;;;;4983867;28;20386;-83
2022/03/25 00:41:58;;;;;;;9.65;7.80;;;;;;;;;;4999121;28;20026;-85
2022/03/25 00:44:24;;;;;;;8.23;5.70;;;;;;;;;;4984280;28;20453;-84
2022/03/25 00:46:50;;;;;;;12.13;6.65;;;;;;;;;;4999679;28;20057;-85
2022/03/25 00:49:17;;;;;;;13.13;7.07;;;;;;;;;;4998612;28;20026;-86
2022/03/25 00:51:54;;;;;;;8.60;5.60;;;;;;;;;;5004361;28;20096;-86
2022/03/25 00:54:20;;;;;;;10.05;6.10;;;;;;;;;;4981310;28;20026;-88
2022/03/25 00:56:45;;;;;;;14.13;6.18;;;;;;;;;;5000533;28;20033;-87
2022/03/25 00:59:11;;;;;;;8.68;6.10;;;;;;;;;;4983702;28;20034;-84
2022/03/25 01:01:37;;;;;;;10.68;6.40;;;;;;;;;;4986742;28;20105;-84
2022/03/25 01:04:03;;;;;;;15.45;6.40;;;;;;;;;;5006093;28;20137;-83
2022/03/25 01:06:29;;;;;;;10.68;6.40;;;;;;;;;;5012319;28;20124;-85
2022/03/25 01:08:55;;;;;;;10.50;6.28;;;;;;;;;;5011999;28;20029;-82
2022/03/25 01:11:20;;;;;;;9.45;5.40;;;;;;;;;;4994543;28;20025;-83
2022/03/25 01:13:46;;;;;;;12.20;6.32;;;;;;;;;;5011802;28;20510;-82
2022/03/25 01:16:11;;;;;;;11.77;6.32;;;;;;;;;;5011952;28;20061;-84
2022/03/25 01:18:37;;;;;;;10.15;6.15;;;;;;;;;;5012516;28;20109;-86
2022/03/25 01:21:02;;;;;;;8.50;5.53;;;;;;;;;;5012217;28;20025;-86
2022/03/25 01:23:28;;;;;;;9.75;6.63;;;;;;;;;;5012290;28;20474;-86
2022/03/25 01:25:53;;;;;;;10.45;5.90;;;;;;;;;;4994320;28;20026;-87
2022/03/25 01:28:19;;;;;;;9.25;5.78;;;;;;;;;;4994237;28;20034;-87
2022/03/25 01:30:46;;;;;;;11.25;6.07;;;;;;;;;;4991157;28;20031;-87
2022/03/25 01:33:13;;;;;;;16.27;6.70;;;;;;;;;;4994654;28;20044;-86
2022/03/25 01:35:38;;;;;;;12.30;6.90;;;;;;;;;;5012098;28;20064;-88
2022/03/25 01:38:04;;;;;;;8.93;6.03;;;;;;;;;;5012828;28;20033;-87
2022/03/25 01:40:30;;;;;;;11.57;7.13;;;;;;;;;;4993889;28;20037;-86
2022/03/25 01:42:56;;;;;;;13.50;7.43;;;;;;;;;;4995020;28;20026;-87
2022/03/25 01:45:34;;;;;;;9.13;6.40;;;;;;;;;;5012298;28;20045;-86
2022/03/25 01:48:06;;;;;;;8.93;7.22;;;;;;;;;;4991638;28;20058;-88
2022/03/25 01:50:32;;;;;;;7.47;5.50;;;;;;;;;;4994306;28;20026;-87
2022/03/25 01:52:57;;;;;;;7.68;5.72;;;;;;;;;;4994317;28;20501;-84
2022/03/25 01:55:26;;;;;;;9.48;5.90;;;;;;;;;;4994958;28;20028;-85
2022/03/25 01:57:55;;;;;;;7.55;6.03;;;;;;;;;;5011981;28;20065;-86
2022/03/25 02:00:21;;;;;;;14.38;6.35;;;;;;;;;;5010698;28;20029;-85
2022/03/25 02:02:47;;;;;;;10.38;6.18;;;;;;;;;;4994419;28;20208;-85
2022/03/25 02:05:13;;;;;;;9.00;5.15;;;;;;;;;;4990975;28;20042;-85
2022/03/25 02:07:40;;;;;;;9.52;6.20;;;;;;;;;;5011283;28;20101;-84
2022/03/25 02:10:05;;;;;;;8.45;6.00;;;;;;;;;;5028144;28;20396;-84
2022/03/25 02:12:35;;;;;;;9.90;5.97;;;;;;;;;;4997731;28;20910;-85
2022/03/25 02:15:01;;;;;;;8.57;5.80;;;;;;;;;;5014382;28;20025;-86
2022/03/25 02:17:26;;;;;;;10.18;6.22;;;;;;;;;;4998515;28;20026;-87
2022/03/25 02:19:52;;;;;;;10.60;6.30;;;;;;;;;;4997985;28;20026;-85
2022/03/25 02:22:17;;;;;;;8.15;5.93;;;;;;;;;;5015241;28;20053;-85
2022/03/25 02:24:43;;;;;;;10.73;6.22;;;;;;;;;;4997958;28;20026;-87
2022/03/25 02:27:12;;;;;;;9.90;5.93;;;;;;;;;;5015239;28;20080;-86
2022/03/25 02:29:39;;;;;;;15.85;6.75;;;;;;;;;;4997687;28;20389;-84
2022/03/25 02:32:05;;;;;;;13.85;6.18;;;;;;;;;;4997460;28;20026;-86
2022/03/25 02:34:31;;;;;;;8.77;5.93;;;;;;;;;;5013843;28;20382;-84
2022/03/25 02:36:57;;;;;;;10.57;5.80;;;;;;;;;;4998061;28;20026;-83
2022/03/25 02:39:23;;;;;;;9.77;6.90;;;;;;;;;;4997395;28;20049;-86
2022/03/25 02:41:49;;;;;;;10.95;6.65;;;;;;;;;;5014762;28;20030;-86
2022/03/25 02:44:15;;;;;;;11.95;6.75;;;;;;;;;;5015011;28;20025;-86
2022/03/25 02:46:40;;;;;;;8.68;6.53;;;;;;;;;;5014582;28;20026;-85
2022/03/25 02:49:06;;;;;;;13.25;6.75;;;;;;;;;;4996855;28;20037;-81
2022/03/25 02:51:31;;;;;;;11.05;6.97;;;;;;;;;;5010041;28;20117;-85
2022/03/25 02:53:57;;;;;;;15.48;8.10;;;;;;;;;;5013950;28;20021;-85
2022/03/25 02:56:24;;;;;;;13.90;8.77;;;;;;;;;;5014302;28;20068;-82
2022/03/25 02:58:50;;;;;;;9.00;6.47;;;;;;;;;;4997320;28;20053;-83
2022/03/25 03:01:16;;;;;;;7.20;5.05;;;;;;;;;;4996880;28;20110;-86
2022/03/25 03:03:41;;;;;;;10.90;7.22;;;;;;;;;;4996759;28;20126;-85
2022/03/25 03:06:07;;;;;;;11.88;6.70;;;;;;;;;;4996654;28;20034;-83
2022/03/25 03:08:35;;;;;;;13.20;6.85;;;;;;;;;;4996756;28;20036;-86
2022/03/25 03:11:01;;;;;;;11.10;6.88;;;;;;;;;;5014412;28;20433;-84
2022/03/25 03:13:27;;;;;;;14.18;6.72;;;;;;;;;;5012838;28;20493;-85
2022/03/25 03:15:53;;;;;;;11.98;8.57;;;;;;;;;;5026414;28;20021;-84
2022/03/25 03:18:20;;;;;;;8.95;7.38;;;;;;;;;;4996636;28;20478;-85
2022/03/25 03:20:45;;;;;;;11.43;7.00;;;;;;;;;;4995399;28;20401;-85
2022/03/25 03:23:11;;;;;;;11.32;6.15;;;;;;;;;;5029466;28;20033;-86
2022/03/25 03:25:36;;;;;;;8.18;5.68;;;;;;;;;;4995341;28;20028;-85
2022/03/25 03:28:02;;;;;;;9.32;5.85;;;;;;;;;;4996382;28;20505;-87
2022/03/25 03:30:28;;;;;;;13.57;6.70;;;;;;;;;;5014552;28;20018;-89
2022/03/25 03:32:58;;;;;;;13.25;7.22;;;;;;;;;;5013823;28;20113;-88
2022/03/25 03:35:27;;;;;;;12.45;7.75;;;;;;;;;;5014045;28;20134;-86
2022/03/25 03:37:53;;;;;;;11.45;7.03;;;;;;;;;;5013716;28;20076;-88
2022/03/25 03:40:20;;;;;;;11.75;7.15;;;;;;;;;;4995744;28;20030;-86
2022/03/25 03:42:45;;;;;;;11.82;7.10;;;;;;;;;;4996226;28;20495;-86
2022/03/25 03:45:13;;;;;;;12.45;8.00;;;;;;;;;;4995946;28;20038;-86
2022/03/25 03:47:39;;;;;;;10.02;6.85;;;;;;;;;;4995070;28;20030;-86
2022/03/25 03:50:07;;;;;;;8.40;6.13;;;;;;;;;;4996075;28;20029;-84
2022/03/25 03:52:32;;;;;;;11.23;6.70;;;;;;;;;;4994410;28;20034;-86
2022/03/25 03:54:57;;;;;;;10.73;6.45;;;;;;;;;;5013127;28;20141;-86
2022/03/25 03:57:23;;;;;;;14.38;7.68;;;;;;;;;;5013201;28;20029;-87
2022/03/25 03:59:49;;;;;;;10.95;6.65;;;;;;;;;;4992407;28;20025;-87
2022/03/25 04:02:14;;;;;;;10.27;6.75;;;;;;;;;;4995767;28;20025;-87
2022/03/25 04:04:40;;;;;;;10.32;7.28;;;;;;;;;;4995486;28;20073;-88
2022/03/25 04:07:05;;;;;;;15.45;7.60;;;;;;;;;;4995633;28;20391;-86
2022/03/25 04:09:31;;;;;;;13.98;6.82;;;;;;;;;;5013045;28;20030;-87
2022/03/25 04:11:56;;;;;;;9.82;6.65;;;;;;;;;;5012674;28;20474;-85
2022/03/25 04:14:22;;;;;;;11.27;7.13;;;;;;;;;;5012434;28;20021;-85
2022/03/25 04:16:47;;;;;;;13.07;8.15;;;;;;;;;;5013303;28;20100;-86
2022/03/25 04:19:13;;;;;;;10.93;6.07;;;;;;;;;;5012733;28;20037;-86
2022/03/25 04:21:39;;;;;;;11.48;6.93;;;;;;;;;;5012551;28;20107;-87
2022/03/25 04:24:05;;;;;;;10.88;6.50;;;;;;;;;;4995650;28;20053;-86
2022/03/25 04:26:31;;;;;;;11.10;6.53;;;;;;;;;;4995401;28;20140;-87
2022/03/25 04:28:56;;;;;;;10.43;7.20;;;;;;;;;;4995554;28;20017;-86
2022/03/25 04:31:22;;;;;;;12.15;6.97;;;;;;;;;;5013080;28;20064;-87
2022/03/25 04:33:47;;;;;;;13.52;7.47;;;;;;;;;;5012724;28;20049;-87
2022/03/25 04:36:14;;;;;;;11.57;8.10;;;;;;;;;;4994955;28;20038;-86
2022/03/25 04:38:40;;;;;;;12.43;7.78;;;;;;;;;;4995092;28;20474;-86
2022/03/25 04:41:09;;;;;;;10.60;7.07;;;;;;;;;;4995000;28;20486;-87
2022/03/25 04:43:38;;;;;;;9.57;7.43;;;;;;;;;;4995531;28;20026;-88
2022/03/25 04:46:04;;;;;;;9.90;7.47;;;;;;;;;;4994934;28;20121;-86
2022/03/25 04:48:30;;;;;;;10.68;7.43;;;;;;;;;;4993859;28;20026;-86
2022/03/25 04:50:56;;;;;;;11.80;7.40;;;;;;;;;;4992923;28;20028;-85
2022/03/25 04:53:21;;;;;;;11.15;7.38;;;;;;;;;;5012388;28;20033;-85
2022/03/25 04:55:47;;;;;;;10.80;7.35;;;;;;;;;;4994741;28;20022;-84
2022/03/25 04:58:12;;;;;;;12.50;6.85;;;;;;;;;;5012206;28;20079;-87
2022/03/25 05:00:38;;;;;;;10.25;9.05;;;;;;;;;;5012838;28;20379;-85
2022/03/25 05:03:04;;;;;;;12.93;7.97;;;;;;;;;;4994650;28;20033;-85
2022/03/25 05:05:31;;;;;;;10.70;6.85;;;;;;;;;;4995140;28;20050;-85
2022/03/25 05:07:58;;;;;;;11.40;7.97;;;;;;;;;;4994813;28;20021;-86
2022/03/25 05:10:23;;;;;;;12.05;7.03;;;;;;;;;;4989136;28;20141;-86
2022/03/25 05:12:49;;;;;;;8.98;6.85;;;;;;;;;;4994651;28;20581;-86
2022/03/25 05:15:14;;;;;;;13.48;7.20;;;;;;;;;;5012186;28;20026;-86
2022/03/25 05:17:48;;;;;;;11.00;6.35;;;;;;;;;;4994450;28;20355;-84
2022/03/25 05:20:15;;;;;;;12.85;7.32;;;;;;;;;;4993023;28;20037;-82
2022/03/25 05:22:41;;;;;;;15.70;7.43;;;;;;;;;;5011634;28;20038;-84
2022/03/25 05:25:08;;;;;;;10.85;7.60;;;;;;;;;;4994046;28;20037;-85
2022/03/25 05:27:46;;;;;;;11.00;6.57;;;;;;;;;;5012247;28;20552;-86
2022/03/25 05:30:13;;;;;;;11.07;7.43;;;;;;;;;;5009984;28;20033;-85
2022/03/25 05:32:39;;;;;;;12.13;7.72;;;;;;;;;;5009959;28;20500;-86
2022/03/25 05:35:06;;;;;;;13.98;7.20;;;;;;;;;;4994579;28;20032;-85
2022/03/25 05:37:32;;;;;;;13.98;8.93;;;;;;;;;;5012218;28;20417;-88
2022/03/25 05:39:59;;;;;;;9.57;7.78;;;;;;;;;;5011813;28;20466;-87
2022/03/25 05:42:50;;;;;;;14.30;7.85;;;;;;;;;;4995718;28;20048;-88
2022/03/25 05:45:18;;;;;;;13.70;8.65;;;;;;;;;;4996299;28;20038;-87
2022/03/25 05:47:43;;;;;;;13.35;8.20;;;;;;;;;;5016224;28;20486;-84
2022/03/25 05:50:11;;;;;;;11.75;7.97;;;;;;;;;;4998567;28;20064;-86
2022/03/25 05:52:37;;;;;;;15.32;8.05;;;;;;;;;;4998589;28;20017;-85
2022/03/25 05:55:06;;;;;;;11.93;8.93;;;;;;;;;;4995288;28;20026;-84
2022/03/25 05:57:32;;;;;;;16.10;9.05;;;;;;;;;;4997762;28;20504;-84
2022/03/25 05:59:59;;;;;;;14.00;8.90;;;;;;;;;;4998145;28;20030;-87
2022/03/25 06:02:27;;;;;;;14.82;8.85;;;;;;;;;;4997666;28;20036;-87
2022/03/25 06:04:55;;;;;;;13.77;8.63;;;;;;;;;;4997680;28;20500;-86
2022/03/25 06:07:22;;;;;;;13.52;8.40;;;;;;;;;;5015968;28;20026;-88
2022/03/25 06:09:47;;;;;;;13.65;9.23;;;;;;;;;;4997923;28;20029;-86
2022/03/25 06:12:13;;;;;;;11.80;8.48;;;;;;;;;;4998261;28;20034;-86
2022/03/25 06:14:39;;;;;;;12.98;8.70;;;;;;;;;;4998236;28;20108;-87
2022/03/25 06:17:05;;;;;;;11.55;8.43;;;;;;;;;;5015325;28;20041;-86
2022/03/25 06:19:31;;;;;;;13.57;9.77;;;;;;;;;;4997728;28;20032;-85
2022/03/25 06:21:57;;;;;;;13.32;9.40;;;;;;;;;;4997596;28;20029;-87
2022/03/25 06:24:22;;;;;;;13.77;8.50;;;;;;;;;;4997589;28;20112;-87
2022/03/25 06:26:48;;;;;;;16.38;10.13;;;;;;;;;;4997502;28;20032;-86
2022/03/25 06:29:13;;;;;;;18.38;12.00;;;;;;;;;;5030231;28;20048;-86
2022/03/25 06:31:39;;;;;;;15.70;10.55;;;;;;;;;;5015104;28;20029;-85
2022/03/25 06:34:05;;;;;;;17.50;10.75;;;;;;;;;;5015567;28;20030;-87
2022/03/25 06:36:31;;;;;;;16.67;11.70;;;;;;;;;;4997461;28;20037;-85
2022/03/25 06:38:56;;;;;;;19.02;11.82;;;;;;;;;;4997545;28;20022;-86
2022/03/25 06:41:22;;;;;;;16.38;11.43;;;;;;;;;;5014799;28;20549;-85
2022/03/25 06:43:49;;;;;;;19.08;11.70;;;;;;;;;;5015090;28;20026;-86
2022/03/25 06:46:17;;;;;;;18.45;11.50;;;;;;;;;;4997912;28;20040;-87
2022/03/25 06:48:42;;;;;;;16.90;11.32;;;;;;;;;;4997720;28;20105;-86
2022/03/25 06:51:09;;;;;;;17.70;12.15;;;;;;;;;;5029876;28;20525;-86
2022/03/25 06:53:36;;;;;;;19.33;11.52;;;;;;;;;;5015393;28;20466;-86
2022/03/25 06:56:01;;;;;;;21.02;11.85;;;;;;;;;;4996012;28;20018;-87
2022/03/25 06:58:27;;;;;;;15.88;11.30;;;;;;;;;;5030224;28;20029;-87
2022/03/25 07:00:53;;;;;;;15.80;10.68;;;;;;;;;;4994798;28;20112;-87
2022/03/25 07:03:19;;;;;;;18.60;10.30;;;;;;;;;;5013809;28;20108;-87
2022/03/25 07:05:45;;;;;;;17.52;10.07;;;;;;;;;;4996604;28;20092;-86
2022/03/25 07:08:11;;;;;;;15.27;10.20;;;;;;;;;;5014601;28;20113;-86
2022/03/25 07:10:38;;;;;;;16.42;10.80;;;;;;;;;;4997113;28;20120;-86
2022/03/25 07:13:04;;;;;;;17.75;11.88;;;;;;;;;;5014507;28;20029;-85
2022/03/25 07:15:30;;;;;;;14.80;10.23;;;;;;;;;;4992867;28;20025;-83
2022/03/25 07:17:56;;;;;;;19.05;10.32;;;;;;;;;;4993983;28;20108;-85
2022/03/25 07:20:25;;;;;;;16.33;10.40;;;;;;;;;;5014275;28;20470;-86
2022/03/25 07:22:52;;;;;;;14.38;9.75;;;;;;;;;;4987011;28;20021;-87
2022/03/25 07:25:18;;;;;;;14.82;8.25;;;;;;;;;;5011654;28;20038;-86
2022/03/25 07:27:46;;;;;;;13.70;9.55;;;;;;;;;;5013252;28;20455;-87
2022/03/25 07:30:13;;;;;;;12.52;8.45;;;;;;;;;;4996406;28;20379;-87
2022/03/25 07:32:39;;;;;;;20.10;9.60;;;;;;;;;;4995592;28;20081;-85
2022/03/25 07:35:05;;;;;;;18.80;10.20;;;;;;;;;;5010223;28;20768;-86
2022/03/25 07:37:30;;;;;;;18.60;10.70;;;;;;;;;;5010274;28;20044;-84
2022/03/25 07:39:56;;;;;;;20.02;12.23;;;;;;;;;;5013110;28;20483;-85
2022/03/25 07:42:21;;;;;;;15.13;10.10;;;;;;;;;;4994949;28;20521;-82
2022/03/25 07:44:47;;;;;;;20.65;10.60;;;;;;;;;;4995011;28;20112;-85
2022/03/25 07:47:14;;;;;;;16.20;10.32;;;;;;;;;;5012154;28;20096;-85
2022/03/25 07:49:40;;;;;;;20.13;8.48;;;;;;;;;;4995908;28;20479;-87
2022/03/25 07:52:07;;;;;;;16.98;9.93;;;;;;;;;;4994518;28;20092;-86
2022/03/25 07:54:34;;;;;;;14.35;9.10;;;;;;;;;;4994526;28;20072;-85
2022/03/25 07:56:59;;;;;;;19.23;9.10;;;;;;;;;;5013085;28;20647;-85
2022/03/25 07:59:28;;;;;;;18.20;9.93;;;;;;;;;;4995359;28;20033;-87
2022/03/25 08:01:55;;;;;;;17.45;10.20;;;;;;;;;;4995788;28;20026;-85
2022/03/25 08:04:24;;;;;;;17.00;9.20;;;;;;;;;;4994659;28;20476;-85
2022/03/25 08:06:50;;;;;;;16.92;11.05;;;;;;;;;;4994695;28;20030;-86
2022/03/25 08:09:15;;;;;;;13.27;8.02;;;;;;;;;;4995325;28;20481;-83
2022/03/25 08:11:41;;;;;;;12.73;8.63;;;;;;;;;;4994893;28;20057;-84
2022/03/25 08:14:06;;;;;;;15.02;9.55;;;;;;;;;;4994965;28;20113;-83
2022/03/25 08:16:33;;;;;;;18.48;10.77;;;;;;;;;;4993721;28;20513;-82
2022/03/25 08:18:58;;;;;;;17.77;9.65;;;;;;;;;;5020574;28;20076;-84
2022/03/25 08:21:24;;;;;;;12.70;9.20;;;;;;;;;;4994859;28;20729;-84
2022/03/25 08:29:22;;;;;;;13.95;8.48;;;;;;;;;;4974715;28;20920;-83
2022/03/25 08:31:47;;;;;;;15.43;9.30;;;;;;;;;;5009649;28;20033;-84
2022/03/25 08:34:15;;;;;;;16.77;10.20;;;;;;;;;;5010384;28;20482;-84
2022/03/25 08:36:41;;;;;;;15.98;9.18;;;;;;;;;;5009319;28;20029;-86
2022/03/25 08:39:06;;;;;;;17.63;9.23;;;;;;;;;;5009996;28;20056;-85
2022/03/25 08:41:32;;;;;;;20.48;9.82;;;;;;;;;;5009801;28;20030;-84
2022/03/25 08:43:58;;;;;;;16.20;8.45;;;;;;;;;;4993303;28;20029;-83
2022/03/25 08:46:23;;;;;;;15.82;9.88;;;;;;;;;;5009757;28;20466;-84
2022/03/25 08:48:49;;;;;;;19.67;9.70;;;;;;;;;;4994627;28;20026;-85
2022/03/25 08:51:15;;;;;;;18.38;9.90;;;;;;;;;;5011132;28;20448;-86
2022/03/25 08:53:41;;;;;;;17.08;8.25;;;;;;;;;;5008861;28;20030;-85
2022/03/25 08:56:07;;;;;;;14.48;8.75;;;;;;;;;;5011038;28;20033;-84
2022/03/25 09:41:40;;;;;;;16.50;8.82;;;;;;;;;;5092510;27;20394;-87
2022/03/25 09:44:44;;;;;;;;;;;;;;;;;;;;;
2022/03/25 09:47:17;;;;;;;10.52;7.43;;;;;;;;;;5083111;28;20029;-84
2022/03/25 09:49:43;;;;;;;14.40;7.72;;;;;;;;;;5090847;28;20379;-85
2022/03/25 09:52:09;;;;;;;14.32;8.13;;;;;;;;;;5079589;28;20032;-83
2022/03/25 09:54:35;;;;;;;9.75;6.88;;;;;;;;;;5083247;28;20026;-84
2022/03/25 09:57:01;;;;;;;11.57;7.88;;;;;;;;;;5088595;28;20098;-84
2022/03/25 09:59:27;;;;;;;13.10;8.35;;;;;;;;;;5093077;28;20016;-83
2022/03/25 10:01:53;;;;;;;9.50;6.93;;;;;;;;;;5097407;28;20359;-84
2022/03/25 10:04:37;;;;;;;11.07;6.50;;;;;;;;;;5095817;28;20020;-83
2022/03/25 10:07:30;;;;;;;10.30;6.88;;;;;;;;;;5094882;28;20020;-85
2022/03/25 10:10:13;;;;;;;10.98;7.28;;;;;;;;;;5092164;28;20066;-84
2022/03/25 10:12:40;;;;;;;10.35;6.65;;;;;;;;;;5098059;28;20028;-83
2022/03/25 10:15:20;;;;;;;10.70;6.60;;;;;;;;;;5097066;28;20085;-84
2022/03/25 10:17:48;;;;;;;10.30;6.78;;;;;;;;;;5087433;28;20054;-85
2022/03/25 10:20:14;;;;;;;8.73;6.47;;;;;;;;;;5083573;28;20025;-84
2022/03/25 10:23:13;;;;;;;7.72;5.13;;;;;;;;;;5088993;28;20110;-82
2022/03/25 10:25:39;;;;;;;10.00;5.60;;;;;;;;;;5096183;28;21056;-81
2022/03/25 10:28:17;;;;;;;12.95;5.78;;;;;;;;;;5098850;28;20032;-80
2022/03/25 10:30:43;;;;;;;9.07;6.18;;;;;;;;;;5089689;28;20117;-81
2022/03/25 10:33:09;;;;;;;9.02;5.72;;;;;;;;;;5079241;28;20024;-81
2022/03/25 10:36:08;;;;;;;8.65;5.82;;;;;;;;;;5091941;28;20025;-83
2022/03/25 10:38:42;;;;;;;9.00;5.57;;;;;;;;;;5088953;28;20047;-83
2022/03/25 10:41:09;;;;;;;9.75;5.18;;;;;;;;;;5087879;28;20048;-84
2022/03/25 10:43:35;;;;;;;11.25;6.05;;;;;;;;;;5080331;28;20363;-83
2022/03/25 10:46:00;;;;;;;9.73;6.00;;;;;;;;;;5088341;28;20024;-83
2022/03/25 10:48:26;;;;;;;8.68;5.70;;;;;;;;;;5075598;28;20059;-83
2022/03/25 10:51:08;;;;;;;10.13;5.35;;;;;;;;;;5076255;28;20487;-83
2022/03/25 10:53:37;;;;;;;10.52;5.38;;;;;;;;;;5082805;28;20028;-81
2022/03/25 10:56:07;;;;;;;8.70;5.30;;;;;;;;;;5081076;28;20036;-84
2022/03/25 10:58:36;;;;;;;9.35;5.10;;;;;;;;;;5078996;28;20055;-81
2022/03/25 11:01:03;;;;;;;7.60;5.18;;;;;;;;;;5084871;28;20364;-83
2022/03/25 11:03:29;;;;;;;8.73;5.50;;;;;;;;;;5079419;28;20418;-84
2022/03/25 11:05:55;;;;;;;9.07;5.80;;;;;;;;;;5076824;28;20028;-83
2022/03/25 11:08:21;;;;;;;12.30;5.28;;;;;;;;;;5072382;28;20033;-85
2022/03/25 11:10:47;;;;;;;8.15;5.10;;;;;;;;;;5082099;28;20021;-83
2022/03/25 11:13:13;;;;;;;8.23;5.00;;;;;;;;;;5082571;28;20053;-83
2022/03/25 11:15:39;;;;;;;10.98;5.20;;;;;;;;;;5082327;28;20033;-89
2022/03/25 11:18:06;;;;;;;9.90;4.88;;;;;;;;;;5080251;28;20032;-84
2022/03/25 11:20:32;;;;;;;9.02;5.55;;;;;;;;;;5082832;28;20360;-84
2022/03/25 11:23:05;;;;;;;7.57;4.90;;;;;;;;;;5076427;28;20060;-83
2022/03/25 11:25:37;;;;;;;8.27;5.40;;;;;;;;;;5076333;28;20024;-83
2022/03/25 11:28:05;;;;;;;8.88;5.28;;;;;;;;;;5083001;28;20074;-82
2022/03/25 11:30:32;;;;;;;8.93;4.55;;;;;;;;;;5077757;28;20024;-82
2022/03/25 11:33:03;;;;;;;9.10;5.32;;;;;;;;;;5085720;28;20387;-81
2022/03/25 11:35:32;;;;;;;8.55;4.70;;;;;;;;;;5079353;28;20031;-83
2022/03/25 11:38:09;;;;;;;7.57;5.15;;;;;;;;;;5085606;28;20107;-81
2022/03/25 11:40:36;;;;;;;7.80;4.95;;;;;;;;;;5073738;28;21453;-79
2022/03/25 11:43:11;;;;;;;9.38;4.72;;;;;;;;;;5076138;28;20029;-82
2022/03/25 11:45:39;;;;;;;16.38;4.72;;;;;;;;;;5073227;28;20071;-82
2022/03/25 11:48:04;;;;;;;9.32;4.90;;;;;;;;;;5073053;28;20031;-81
2022/03/25 11:50:42;;;;;;;8.23;5.22;;;;;;;;;;5081245;28;20024;-84
2022/03/25 11:53:11;;;;;;;9.38;5.03;;;;;;;;;;5086826;28;20032;-82
2022/03/25 11:56:02;;;;;;;9.70;4.97;;;;;;;;;;5079717;28;20097;-84
2022/03/25 11:58:30;;;;;;;8.13;4.65;;;;;;;;;;5076452;28;20024;-84
2022/03/25 12:01:11;;;;;;;10.70;5.35;;;;;;;;;;5082328;28;20020;-81
2022/03/25 12:03:41;;;;;;;6.88;5.15;;;;;;;;;;5076162;28;20116;-83
2022/03/25 12:06:08;;;;;;;9.15;4.95;;;;;;;;;;5086089;28;20031;-83
2022/03/25 12:08:35;;;;;;;7.43;4.38;;;;;;;;;;5075389;28;20031;-84
2022/03/25 12:11:08;;;;;;;8.57;4.80;;;;;;;;;;5080555;28;20025;-83
2022/03/25 12:13:51;;;;;;;6.00;4.47;;;;;;;;;;5072332;28;20031;-85
2022/03/25 12:16:49;;;;;;;9.90;4.75;;;;;;;;;;5079942;28;20471;-83
2022/03/25 12:19:26;;;;;;;5.25;3.95;;;;;;;;;;5081840;28;20036;-82
2022/03/25 12:22:21;;;;;;;7.80;4.63;;;;;;;;;;5083764;28;20472;-84
2022/03/25 12:24:47;;;;;;;8.70;5.05;;;;;;;;;;5079246;28;20052;-83
2022/03/25 12:27:13;;;;;;;8.23;4.60;;;;;;;;;;5072200;28;20029;-83
2022/03/25 12:29:41;;;;;;;5.82;4.22;;;;;;;;;;5078754;28;20043;-85
2022/03/25 12:32:09;;;;;;;7.85;4.93;;;;;;;;;;5081752;28;20475;-84
2022/03/25 12:34:55;;;;;;;5.53;3.90;;;;;;;;;;5082899;28;20028;-84
2022/03/25 12:37:32;;;;;;;9.95;4.45;;;;;;;;;;5078765;28;20034;-85
2022/03/25 12:40:17;;;;;;;10.57;4.15;;;;;;;;;;5076746;28;20040;-84
2022/03/25 12:42:46;;;;;;;5.75;4.15;;;;;;;;;;5088895;28;20028;-84
2022/03/25 12:45:11;;;;;;;12.23;4.45;;;;;;;;;;5085919;28;20028;-85
2022/03/25 12:47:43;;;;;;;7.40;3.97;;;;;;;;;;5075707;28;20397;-83
2022/03/25 12:50:09;;;;;;;6.72;4.40;;;;;;;;;;5078150;28;20017;-83
2022/03/25 12:52:34;;;;;;;7.88;4.13;;;;;;;;;;5079176;28;20024;-85
2022/03/25 12:55:15;;;;;;;8.02;3.92;;;;;;;;;;5082313;28;20024;-82
2022/03/25 12:57:41;;;;;;;4.75;3.47;;;;;;;;;;5081052;28;20123;-83
2022/03/25 13:00:10;;;;;;;5.18;3.65;;;;;;;;;;5080442;28;20024;-87
2022/03/25 13:02:38;;;;;;;5.88;3.42;;;;;;;;;;5077186;28;20511;-84
2022/03/25 13:05:17;;;;;;;4.47;3.30;;;;;;;;;;5076991;28;20356;-83
2022/03/25 13:07:47;;;;;;;5.07;3.55;;;;;;;;;;5081057;28;20115;-86
2022/03/25 13:10:13;;;;;;;7.35;4.20;;;;;;;;;;5078324;28;20052;-81
2022/03/25 13:12:42;;;;;;;9.02;4.00;;;;;;;;;;5078273;28;20034;-82
2022/03/25 13:15:11;;;;;;;6.85;4.05;;;;;;;;;;5079172;28;20075;-83
2022/03/25 13:17:47;;;;;;;6.90;4.40;;;;;;;;;;5076844;28;20031;-83
2022/03/25 13:20:16;;;;;;;7.70;4.22;;;;;;;;;;5079040;28;20289;-85
2022/03/25 13:23:04;;;;;;;5.05;3.72;;;;;;;;;;5079704;28;20032;-83
2022/03/25 13:25:51;;;;;;;8.10;4.15;;;;;;;;;;5077838;28;20616;-84
2022/03/25 13:28:20;;;;;;;8.55;3.75;;;;;;;;;;5080319;28;20036;-85
2022/03/25 13:30:48;;;;;;;5.85;3.38;;;;;;;;;;5079457;28;20039;-85
2022/03/25 13:33:16;;;;;;;9.80;4.55;;;;;;;;;;5079397;28;20024;-83
2022/03/25 13:35:47;;;;;;;8.40;4.07;;;;;;;;;;5078957;28;20029;-84
2022/03/25 13:38:15;;;;;;;7.38;4.57;;;;;;;;;;5077208;28;20103;-84
2022/03/25 13:40:57;;;;;;;5.90;4.13;;;;;;;;;;5082207;28;20415;-83
2022/03/25 13:43:38;;;;;;;7.30;4.30;;;;;;;;;;5084589;28;20019;-82
2022/03/25 13:46:22;;;;;;;5.85;4.15;;;;;;;;;;5075633;28;20082;-86
2022/03/25 13:49:17;;;;;;;5.50;3.63;;;;;;;;;;5077020;28;20037;-84
2022/03/25 13:51:44;;;;;;;6.72;3.85;;;;;;;;;;5081611;28;20118;-85
2022/03/25 13:54:18;;;;;;;6.38;3.97;;;;;;;;;;5080357;28;20531;-84
2022/03/25 13:56:54;;;;;;;7.03;4.10;;;;;;;;;;5077276;28;20025;-83
2022/03/25 13:59:36;;;;;;;7.55;3.92;;;;;;;;;;5078844;28;20017;-83
2022/03/25 14:02:19;;;;;;;9.95;4.55;;;;;;;;;;5081955;28;20030;-85
2022/03/25 14:04:44;;;;;;;7.50;4.95;;;;;;;;;;5080579;28;20071;-82
2022/03/25 14:07:16;;;;;;;8.50;5.45;;;;;;;;;;5082298;28;20027;-84
2022/03/25 14:09:42;;;;;;;8.75;5.57;;;;;;;;;;5079524;28;20031;-83
2022/03/25 14:12:17;;;;;;;7.95;4.65;;;;;;;;;;5082836;28;20095;-81
2022/03/25 14:15:00;;;;;;;8.20;4.80;;;;;;;;;;5083746;28;20032;-80
2022/03/25 14:17:31;;;;;;;6.88;4.22;;;;;;;;;;5076249;28;20032;-84
2022/03/25 14:20:01;;;;;;;9.02;5.13;;;;;;;;;;5077516;28;20477;-83
2022/03/25 14:22:28;;;;;;;6.90;4.97;;;;;;;;;;5078084;28;20498;-83
2022/03/25 14:24:53;;;;;;;8.43;5.03;;;;;;;;;;5081974;28;20400;-83
2022/03/25 14:27:19;;;;;;;7.53;5.07;;;;;;;;;;5087808;28;20092;-82
2022/03/25 14:29:45;;;;;;;10.45;4.72;;;;;;;;;;5078910;28;20476;-82
2022/03/25 14:32:10;;;;;;;10.02;5.28;;;;;;;;;;5082030;28;20021;-82
2022/03/25 14:34:39;;;;;;;10.82;5.82;;;;;;;;;;5076357;28;20484;-84
2022/03/25 14:37:05;;;;;;;8.38;5.22;;;;;;;;;;5086728;28;20081;-82
2022/03/25 14:39:32;;;;;;;8.80;5.90;;;;;;;;;;5077824;28;20032;-82
2022/03/25 14:41:58;;;;;;;9.70;5.75;;;;;;;;;;5082398;28;20035;-81
2022/03/25 14:44:24;;;;;;;12.85;6.35;;;;;;;;;;5086082;28;20025;-84
2022/03/25 14:46:49;;;;;;;7.00;5.28;;;;;;;;;;5079263;28;20098;-84
2022/03/25 14:49:15;;;;;;;11.43;6.22;;;;;;;;;;5078408;28;20021;-84
2022/03/25 14:51:41;;;;;;;9.65;6.10;;;;;;;;;;5077259;28;20438;-85
2022/03/25 14:54:10;;;;;;;10.50;6.07;;;;;;;;;;5076952;28;20024;-82
2022/03/25 14:56:36;;;;;;;9.98;7.70;;;;;;;;;;5083197;28;20549;-83
2022/03/25 14:59:02;;;;;;;12.48;8.55;;;;;;;;;;5080517;28;20024;-81
2022/03/25 15:01:28;;;;;;;8.70;5.90;;;;;;;;;;5087116;28;20074;-84
2022/03/25 15:03:53;;;;;;;8.25;5.75;;;;;;;;;;5069144;28;20049;-84
2022/03/25 15:06:19;;;;;;;10.98;6.75;;;;;;;;;;5084505;28;20474;-81
2022/03/25 15:08:45;;;;;;;10.85;7.22;;;;;;;;;;5066592;28;20035;-84
2022/03/25 15:11:12;;;;;;;17.23;8.25;;;;;;;;;;5069594;28;20368;-83
2022/03/25 15:13:39;;;;;;;13.25;8.52;;;;;;;;;;5070264;28;20036;-85
2022/03/25 15:16:14;;;;;;;12.95;8.27;;;;;;;;;;5066748;28;20107;-84
2022/03/25 15:18:41;;;;;;;15.60;9.60;;;;;;;;;;5078399;28;20497;-82
2022/03/25 15:21:08;;;;;;;11.02;8.32;;;;;;;;;;5078332;28;20039;-82
2022/03/25 15:23:35;;;;;;;15.80;9.00;;;;;;;;;;5077435;28;20044;-82
2022/03/25 15:26:01;;;;;;;13.25;7.63;;;;;;;;;;5077904;28;20106;-82
2022/03/25 15:28:28;;;;;;;13.20;8.20;;;;;;;;;;5073818;28;20123;-82
2022/03/25 15:36:24;;;;;;;12.57;8.00;;;;;;;;;;5074901;28;20498;-82